createdAt,value
2022-12-08T00:00:54.928Z,100644.31
2022-12-08T00:03:21.885Z,100629.91
2022-12-08T00:05:49.798Z,100628.97
2022-12-08T00:08:16.587Z,100620.88
2022-12-08T00:10:50.797Z,100626.97
2022-12-08T00:13:18.818Z,100622.41
2022-12-08T00:15:45.387Z,100624.09
2022-12-08T00:18:12.168Z,100619.53
2022-12-08T00:20:38.859Z,100620.25
2022-12-08T00:23:05.440Z,100624.56
2022-12-08T00:25:35.712Z,100619.88
2022-12-08T00:28:02.368Z,100612.66
2022-12-08T00:30:30.502Z,100613.31
2022-12-08T00:32:57.167Z,100617.56
2022-12-08T00:35:23.857Z,100615.66
2022-12-08T00:37:50.401Z,100614.59
2022-12-08T00:40:17.188Z,100610.91
2022-12-08T00:42:43.778Z,100605.34
2022-12-08T00:45:11.574Z,100599.81
2022-12-08T00:47:39.573Z,100600.56
2022-12-08T00:50:07.427Z,100596.94
2022-12-08T00:52:34.060Z,100590.47
2022-12-08T00:55:00.699Z,100589.47
2022-12-08T00:57:27.429Z,100588.63
2022-12-08T00:59:54.007Z,100578.72
2022-12-08T01:02:20.599Z,100583.97
2022-12-08T01:04:48.536Z,100584.72
2022-12-08T01:07:15.169Z,100589.81
2022-12-08T01:09:41.873Z,100586.97
2022-12-08T01:12:09.093Z,100585.03
2022-12-08T01:14:37.026Z,100575.34
2022-12-08T01:17:03.953Z,100576.09
2022-12-08T01:19:30.673Z,100580.38
2022-12-08T01:21:59.487Z,100577.59
2022-12-08T01:24:26.920Z,100573.97
2022-12-08T01:26:53.495Z,100574.69
2022-12-08T01:29:20.093Z,100567.56
2022-12-08T01:31:46.707Z,100571.00
2022-12-08T01:34:13.304Z,100561.19
2022-12-08T01:36:41.173Z,100562.91
2022-12-08T01:39:14.043Z,100560.97
2022-12-08T01:41:41.354Z,100557.34
2022-12-08T01:44:45.349Z,100542.19
2022-12-08T01:47:12.038Z,100540.38
2022-12-08T01:49:38.664Z,100537.72
2022-12-08T01:52:11.001Z,100536.00
2022-12-08T01:54:44.239Z,100535.06
2022-12-08T01:57:16.816Z,100533.22
2022-12-08T01:59:49.824Z,100529.59
2022-12-08T02:02:16.484Z,100525.13
2022-12-08T02:04:43.115Z,100521.50
2022-12-08T02:07:12.266Z,100514.34
2022-12-08T02:09:41.754Z,100521.41
2022-12-08T02:12:09.861Z,100519.56
2022-12-08T02:14:36.647Z,100515.94
2022-12-08T02:17:10.535Z,100513.28
2022-12-08T02:20:04.377Z,100508.69
2022-12-08T02:22:39.793Z,100510.41
2022-12-08T02:25:15.939Z,100509.44
2022-12-08T02:27:52.035Z,100506.75
2022-12-08T02:30:22.063Z,100503.25
2022-12-08T02:33:13.570Z,100506.88
2022-12-08T02:35:47.666Z,100509.56
2022-12-08T02:38:24.081Z,100494.41
2022-12-08T02:41:00.935Z,100495.38
2022-12-08T02:43:33.819Z,100493.66
2022-12-08T02:46:03.482Z,100484.56
2022-12-08T02:48:32.426Z,100487.13
2022-12-08T02:51:01.029Z,100485.41
2022-12-08T02:53:30.528Z,100480.09
2022-12-08T02:56:03.265Z,100472.00
2022-12-08T02:59:02.188Z,100467.50
2022-12-08T03:02:02.045Z,100462.03
2022-12-08T03:04:38.330Z,100463.88
2022-12-08T03:07:11.363Z,100463.88
2022-12-08T03:09:41.854Z,100460.22
2022-12-08T03:12:16.954Z,100458.41
2022-12-08T03:14:49.869Z,100455.66
2022-12-08T03:17:19.327Z,100456.38
2022-12-08T03:19:48.690Z,100454.69
2022-12-08T03:22:21.898Z,100453.84
2022-12-08T03:24:49.355Z,100444.03
2022-12-08T03:27:19.785Z,100447.44
2022-12-08T03:29:47.247Z,100440.38
2022-12-08T03:32:21.985Z,100448.38
2022-12-08T03:34:51.506Z,100441.38
2022-12-08T03:37:20.759Z,100438.69
2022-12-08T03:39:47.441Z,100435.03
2022-12-08T03:42:14.051Z,100434.22
2022-12-08T03:44:40.738Z,100431.41
2022-12-08T03:47:07.312Z,100420.75
2022-12-08T03:49:33.956Z,100419.03
2022-12-08T03:52:00.654Z,100415.41
2022-12-08T03:54:28.728Z,100412.75
2022-12-08T03:56:55.382Z,100419.03
2022-12-08T03:59:21.917Z,100419.03
2022-12-08T04:01:48.677Z,100411.88
2022-12-08T04:04:15.328Z,100403.78
2022-12-08T04:06:41.935Z,100408.25
2022-12-08T04:09:09.395Z,100409.22
2022-12-08T04:11:37.415Z,100409.34
2022-12-08T04:14:04.023Z,100405.91
2022-12-08T04:16:30.793Z,100401.53
2022-12-08T04:18:57.546Z,100401.53
2022-12-08T04:21:24.170Z,100399.63
2022-12-08T04:23:52.146Z,100406.78
2022-12-08T04:26:21.525Z,100399.63
2022-12-08T04:28:49.523Z,100396.00
2022-12-08T04:31:16.153Z,100397.69
2022-12-08T04:33:42.778Z,100398.44
2022-12-08T04:36:09.767Z,100404.75
2022-12-08T04:38:36.402Z,100389.81
2022-12-08T04:41:03.215Z,100392.59
2022-12-08T04:43:29.833Z,100389.91
2022-12-08T04:45:57.831Z,100384.59
2022-12-08T04:48:24.497Z,100381.91
2022-12-08T04:50:51.104Z,100379.25
2022-12-08T04:53:17.789Z,100381.81
2022-12-08T04:55:44.940Z,100378.19
2022-12-08T04:58:12.705Z,100378.91
2022-12-08T05:00:39.298Z,100369.09
2022-12-08T05:03:07.404Z,100370.69
2022-12-08T05:05:34.022Z,100375.06
2022-12-08T05:08:00.691Z,100382.09
2022-12-08T05:10:27.539Z,100375.69
2022-12-08T05:12:54.083Z,100366.00
2022-12-08T05:15:20.688Z,100364.16
2022-12-08T05:17:47.246Z,100367.56
2022-12-08T05:20:15.389Z,100366.72
2022-12-08T05:22:41.983Z,100361.28
2022-12-08T05:25:09.289Z,100366.63
2022-12-08T05:27:36.460Z,100357.53
2022-12-08T05:30:03.752Z,100356.56
2022-12-08T05:32:30.593Z,100358.38
2022-12-08T05:34:57.129Z,100352.19
2022-12-08T05:37:25.103Z,100356.66
2022-12-08T05:39:51.655Z,100351.22
2022-12-08T05:42:23.173Z,100347.59
2022-12-08T05:44:51.313Z,100351.13
2022-12-08T05:47:17.894Z,100350.16
2022-12-08T05:49:44.488Z,100353.66
2022-12-08T05:52:11.145Z,100352.59
2022-12-08T05:54:39.072Z,100345.47
2022-12-08T05:57:05.610Z,100342.78
2022-12-08T05:59:32.353Z,100343.63
2022-12-08T06:01:59.128Z,100347.13
2022-12-08T06:04:25.830Z,100335.50
2022-12-08T06:06:52.396Z,100340.84
2022-12-08T06:09:18.958Z,100332.84
2022-12-08T06:11:46.865Z,100328.44
2022-12-08T06:14:13.745Z,100339.25
2022-12-08T06:16:40.414Z,100330.41
2022-12-08T06:19:07.057Z,100338.41
2022-12-08T06:21:33.843Z,100339.38
2022-12-08T06:24:00.432Z,100337.66
2022-12-08T06:26:27.061Z,100340.31
2022-12-08T06:28:55.044Z,100341.19
2022-12-08T06:31:23.541Z,100343.84
2022-12-08T06:33:50.931Z,100343.75
2022-12-08T06:36:19.776Z,100343.75
2022-12-08T06:38:46.705Z,100348.13
2022-12-08T06:41:13.678Z,100345.31
2022-12-08T06:43:40.275Z,100345.31
2022-12-08T06:46:10.776Z,100350.44
2022-12-08T06:48:37.423Z,100336.97
2022-12-08T06:51:08.833Z,100343.06
2022-12-08T06:53:35.395Z,100346.47
2022-12-08T06:56:02.103Z,100357.88
2022-12-08T06:58:28.855Z,100350.59
2022-12-08T07:00:55.550Z,100363.00
2022-12-08T07:03:23.614Z,100354.03
2022-12-08T07:05:50.210Z,100366.41
2022-12-08T07:08:16.898Z,100360.09
2022-12-08T07:10:43.513Z,100357.41
2022-12-08T07:13:10.117Z,100358.28
2022-12-08T07:15:36.797Z,100357.31
2022-12-08T07:18:03.613Z,100351.03
2022-12-08T07:20:31.577Z,100356.34
2022-12-08T07:22:58.372Z,100346.53
2022-12-08T07:25:24.951Z,100350.88
2022-12-08T07:27:51.600Z,100353.56
2022-12-08T07:30:18.657Z,100349.94
2022-12-08T07:32:45.794Z,100356.13
2022-12-08T07:35:12.456Z,100354.31
2022-12-08T07:37:40.441Z,100357.94
2022-12-08T07:40:09.246Z,100352.50
2022-12-08T07:42:35.995Z,100350.69
2022-12-08T07:45:02.611Z,100344.34
2022-12-08T07:47:29.203Z,100356.75
2022-12-08T07:49:55.808Z,100349.59
2022-12-08T07:52:22.421Z,100346.81
2022-12-08T07:54:50.422Z,100354.81
2022-12-08T07:57:17.091Z,100357.34
2022-12-08T07:59:43.726Z,100359.91
2022-12-08T08:02:25.734Z,100366.97
2022-12-08T08:04:53.127Z,100369.66
2022-12-08T08:07:19.820Z,100363.22
2022-12-08T08:09:46.409Z,100369.31
2022-12-08T08:12:30.674Z,100363.00
2022-12-08T08:14:58.523Z,100363.72
2022-12-08T08:17:25.311Z,100366.16
2022-12-08T08:19:51.955Z,100363.28
2022-12-08T08:22:18.555Z,100359.50
2022-12-08T08:24:45.438Z,100366.31
2022-12-08T08:27:13.677Z,100362.34
2022-12-08T08:29:40.224Z,100360.53
2022-12-08T08:32:06.812Z,100362.97
2022-12-08T08:34:33.455Z,100365.53
2022-12-08T08:37:00.285Z,100360.91
2022-12-08T08:39:27.156Z,100359.06
2022-12-08T08:41:53.855Z,100355.34
2022-12-08T08:44:21.802Z,100356.91
2022-12-08T08:46:48.403Z,100358.38
2022-12-08T08:49:15.066Z,100366.03
2022-12-08T08:51:41.735Z,100356.72
2022-12-08T08:54:08.324Z,100355.50
2022-12-08T08:56:35.031Z,100360.50
2022-12-08T08:59:01.705Z,100351.38
2022-12-08T09:01:30.241Z,100353.84
2022-12-08T09:03:57.058Z,100346.78
2022-12-08T09:06:24.715Z,100351.03
2022-12-08T09:08:51.939Z,100349.09
2022-12-08T09:11:18.800Z,100339.97
2022-12-08T09:13:47.861Z,100344.25
2022-12-08T09:16:14.496Z,100340.59
2022-12-08T09:18:42.498Z,100339.50
2022-12-08T09:21:11.100Z,100340.22
2022-12-08T09:23:37.756Z,100338.28
2022-12-08T09:26:05.233Z,100332.81
2022-12-08T09:28:31.813Z,100335.25
2022-12-08T09:30:58.469Z,100335.13
2022-12-08T09:33:25.174Z,100340.34
2022-12-08T09:35:53.240Z,100336.56
2022-12-08T09:38:19.876Z,100327.59
2022-12-08T09:40:50.489Z,100326.72
2022-12-08T09:43:31.428Z,100325.06
2022-12-08T09:45:59.337Z,100334.75
2022-12-08T09:48:31.791Z,100317.03
2022-12-08T09:50:59.872Z,100325.88
2022-12-08T09:53:35.902Z,100323.19
2022-12-08T09:56:08.539Z,100321.28
2022-12-08T09:58:48.069Z,100316.88
2022-12-08T10:01:15.542Z,100322.13
2022-12-08T10:03:43.036Z,100314.72
2022-12-08T10:06:19.957Z,100312.78
2022-12-08T10:08:56.110Z,100316.06
2022-12-08T10:11:29.225Z,100313.13
2022-12-08T10:14:03.159Z,100307.41
2022-12-08T10:16:34.718Z,100305.31
2022-12-08T10:19:13.345Z,100303.25
2022-12-08T10:21:41.479Z,100300.34
2022-12-08T10:24:15.459Z,100302.88
2022-12-08T10:26:42.844Z,100304.59
2022-12-08T10:29:13.089Z,100304.34
2022-12-08T10:31:39.903Z,100307.75
2022-12-08T10:34:17.363Z,100307.75
2022-12-08T10:36:53.027Z,100297.78
2022-12-08T10:39:34.702Z,100294.00
2022-12-08T10:42:06.278Z,100296.66
2022-12-08T10:44:33.111Z,100290.22
2022-12-08T10:46:59.957Z,100293.63
2022-12-08T10:49:31.761Z,100295.34
2022-12-08T10:51:59.923Z,100292.50
2022-12-08T10:54:29.226Z,100292.50
2022-12-08T10:56:57.044Z,100297.75
2022-12-08T10:59:24.541Z,100293.38
2022-12-08T11:01:52.928Z,100297.88
2022-12-08T11:04:21.721Z,100288.16
2022-12-08T11:06:50.036Z,100296.31
2022-12-08T11:09:32.419Z,100293.03
2022-12-08T11:12:00.853Z,100298.75
2022-12-08T11:14:29.935Z,100293.78
2022-12-08T11:17:04.739Z,100287.69
2022-12-08T11:19:31.538Z,100289.50
2022-12-08T11:21:58.248Z,100293.03
2022-12-08T11:24:32.303Z,100284.91
2022-12-08T11:27:02.476Z,100283.56
2022-12-08T11:29:32.663Z,100279.66
2022-12-08T11:32:02.736Z,100279.28
2022-12-08T11:34:35.413Z,100275.47
2022-12-08T11:37:04.983Z,100272.53
2022-12-08T11:39:36.343Z,100278.63
2022-12-08T11:42:05.790Z,100276.66
2022-12-08T11:44:38.776Z,100275.59
2022-12-08T11:47:10.581Z,100281.66
2022-12-08T11:49:39.178Z,100279.97
2022-12-08T11:52:17.384Z,100282.66
2022-12-08T11:54:52.106Z,100285.19
2022-12-08T11:57:23.246Z,100277.88
2022-12-08T11:59:52.014Z,100281.28
2022-12-08T12:02:22.038Z,100282.72
2022-12-08T12:04:54.432Z,100279.66
2022-12-08T12:07:53.041Z,100281.25
2022-12-08T12:10:39.659Z,100278.31
2022-12-08T12:13:19.374Z,100279.75
2022-12-08T12:16:19.535Z,100272.44
2022-12-08T12:18:50.927Z,100273.53
2022-12-08T12:21:22.320Z,100270.16
2022-12-08T12:23:54.255Z,100271.25
2022-12-08T12:26:24.781Z,100279.28
2022-12-08T12:28:55.830Z,100273.34
2022-12-08T12:31:26.033Z,100278.84
2022-12-08T12:33:57.142Z,100281.50
2022-12-08T12:36:24.102Z,100276.88
2022-12-08T12:38:55.331Z,100280.50
2022-12-08T12:41:28.014Z,100280.50
2022-12-08T12:44:20.844Z,100274.31
2022-12-08T12:46:57.205Z,100270.66
2022-12-08T12:50:05.535Z,100277.72
2022-12-08T12:52:53.429Z,100272.38
2022-12-08T12:55:29.741Z,100276.16
2022-12-08T12:58:01.654Z,100275.53
2022-12-08T13:00:28.336Z,100280.19
2022-12-08T13:02:56.498Z,100277.63
2022-12-08T13:05:26.213Z,100272.25
2022-12-08T13:07:56.146Z,100268.63
2022-12-08T13:10:25.508Z,100272.00
2022-12-08T13:13:15.544Z,100264.72
2022-12-08T13:15:49.690Z,100265.31
2022-12-08T13:18:20.941Z,100268.56
2022-12-08T13:20:51.553Z,100262.81
2022-12-08T13:23:44.529Z,100268.78
2022-12-08T13:26:16.538Z,100273.91
2022-12-08T13:29:16.711Z,100268.53
2022-12-08T13:31:50.052Z,100261.47
2022-12-08T13:34:21.880Z,100257.09
2022-12-08T13:36:57.232Z,100262.59
2022-12-08T13:39:28.967Z,100266.25
2022-12-08T13:42:02.051Z,100269.78
2022-12-08T13:45:18.682Z,100273.41
2022-12-08T13:47:34.673Z,100273.31
2022-12-08T13:58:37.263Z,100276.59
2022-12-08T14:01:10.739Z,100291.81
2022-12-08T14:03:58.302Z,100277.59
2022-12-08T14:06:36.547Z,100288.69
2022-12-08T14:09:10.852Z,100281.63
2022-12-08T14:11:40.914Z,100280.78
2022-12-08T14:14:14.300Z,100277.34
2022-12-08T14:16:49.118Z,100288.34
2022-12-08T14:19:19.304Z,100286.88
2022-12-08T14:21:54.437Z,100293.22
2022-12-08T14:24:22.682Z,100285.44
2022-12-08T14:26:52.777Z,100297.13
2022-12-08T14:29:35.970Z,100294.69
2022-12-08T14:32:04.529Z,100289.59
2022-12-08T14:34:35.105Z,100299.69
2022-12-08T14:37:01.893Z,100307.97
2022-12-08T14:39:28.654Z,100306.41
2022-12-08T14:42:00.085Z,100308.34
2022-12-08T14:44:30.952Z,100309.47
2022-12-08T14:47:07.357Z,100310.53
2022-12-08T14:49:35.974Z,100305.44
2022-12-08T14:52:08.583Z,100314.44
2022-12-08T14:54:35.822Z,100312.03
2022-12-08T14:57:03.327Z,100304.25
2022-12-08T14:59:32.852Z,100305.47
2022-12-08T15:02:20.927Z,100312.03
2022-12-08T15:04:50.507Z,100302.53
2022-12-08T15:07:19.499Z,100301.94
2022-12-08T15:09:48.756Z,100302.28
2022-12-08T15:12:26.815Z,100308.75
2022-12-08T15:14:56.594Z,100306.34
2022-12-08T15:17:34.753Z,100305.69
2022-12-08T15:20:03.383Z,100298.78
2022-12-08T15:22:30.781Z,100307.06
2022-12-08T15:24:57.979Z,100317.00
2022-12-08T15:27:25.594Z,100327.09
2022-12-08T15:29:53.012Z,100329.03
2022-12-08T15:32:23.191Z,100332.91
2022-12-08T15:34:51.409Z,100332.31
2022-12-08T15:37:22.104Z,100332.56
2022-12-08T15:39:49.236Z,100320.41
2022-12-08T15:42:16.054Z,100325.16
2022-12-08T15:44:43.257Z,100326.22
2022-12-08T15:47:16.208Z,100329.03
2022-12-08T15:49:43.042Z,100335.56
2022-12-08T15:52:15.913Z,100335.78
2022-12-08T15:54:42.690Z,100330.69
2022-12-08T15:57:29.987Z,100339.78
2022-12-08T16:00:36.415Z,100334.69
2022-12-08T16:03:42.265Z,100342.09
2022-12-08T16:06:16.547Z,100341.59
2022-12-08T16:08:49.465Z,100349.84
2022-12-08T16:11:56.811Z,100347.50
2022-12-08T16:14:48.793Z,100354.91
2022-12-08T16:16:56.384Z,100358.78
2022-12-08T16:19:23.102Z,100359.00
2022-12-08T16:22:30.297Z,100358.38
2022-12-08T16:24:37.875Z,100355.00
2022-12-08T16:29:51.568Z,100361.41
2022-12-08T16:32:18.400Z,100367.69
2022-12-08T16:34:45.283Z,100363.56
2022-12-08T16:37:15.142Z,100365.50
2022-12-08T16:39:45.917Z,100367.41
2022-12-08T16:42:14.354Z,100370.22
2022-12-08T16:44:41.600Z,100363.28
2022-12-08T16:47:09.149Z,100364.22
2022-12-08T16:49:37.054Z,100376.00
2022-12-08T16:52:04.186Z,100373.44
2022-12-08T16:54:31.178Z,100373.66
2022-12-08T16:57:01.043Z,100380.97
2022-12-08T16:59:27.721Z,100376.78
2022-12-08T17:01:54.439Z,100381.41
2022-12-08T17:04:36.693Z,100379.78
2022-12-08T17:07:03.403Z,100373.81
2022-12-08T17:09:31.274Z,100375.00
2022-12-08T17:12:03.776Z,100377.81
2022-12-08T17:14:33.478Z,100378.00
2022-12-08T17:17:00.260Z,100379.09
2022-12-08T17:19:27.047Z,100388.06
2022-12-08T17:21:53.717Z,100385.41
2022-12-08T17:24:22.272Z,100391.69
2022-12-08T17:26:49.252Z,100382.97
2022-12-08T17:29:17.353Z,100385.72
2022-12-08T17:31:44.112Z,100378.69
2022-12-08T17:34:11.144Z,100387.53
2022-12-08T17:36:38.072Z,100394.06
2022-12-08T17:39:05.697Z,100395.88
2022-12-08T17:41:32.800Z,100391.53
2022-12-08T17:43:59.527Z,100397.91
2022-12-08T17:46:27.847Z,100397.28
2022-12-08T17:48:54.546Z,100399.34
2022-12-08T17:51:21.243Z,100394.19
2022-12-08T17:53:48.098Z,100393.47
2022-12-08T17:56:18.294Z,100396.22
2022-12-08T17:58:48.542Z,100391.97
2022-12-08T18:01:17.995Z,100398.28
2022-12-08T18:03:46.064Z,100392.22
2022-12-08T18:06:12.878Z,100398.50
2022-12-08T18:08:40.230Z,100396.88
2022-12-08T18:11:12.054Z,100397.88
2022-12-08T18:13:38.881Z,100404.38
2022-12-08T18:16:05.798Z,100406.38
2022-12-08T18:18:32.576Z,100416.31
2022-12-08T18:21:00.732Z,100421.84
2022-12-08T18:23:27.454Z,100412.38
2022-12-08T18:25:54.306Z,100412.59
2022-12-08T18:28:21.063Z,100415.47
2022-12-08T18:30:47.839Z,100413.00
2022-12-08T18:33:14.546Z,100416.75
2022-12-08T18:35:41.283Z,100419.50
2022-12-08T18:38:09.411Z,100410.78
2022-12-08T18:40:36.545Z,100414.41
2022-12-08T18:43:03.248Z,100418.00
2022-12-08T18:45:29.938Z,100425.06
2022-12-08T18:47:56.607Z,100420.69
2022-12-08T18:50:23.369Z,100418.00
2022-12-08T18:52:50.068Z,100422.41
2022-12-08T18:55:18.362Z,100432.09
2022-12-08T18:57:45.138Z,100430.16
2022-12-08T19:00:14.662Z,100424.84
2022-12-08T19:02:42.117Z,100432.84
2022-12-08T19:05:10.850Z,100440.09
2022-12-08T19:07:38.252Z,100439.16
2022-12-08T19:10:06.931Z,100437.44
2022-12-08T19:12:35.249Z,100441.91
2022-12-08T19:15:01.982Z,100441.06
2022-12-08T19:17:28.626Z,100450.84
2022-12-08T19:19:55.359Z,100448.31
2022-12-08T19:22:22.011Z,100446.59
2022-12-08T19:24:48.660Z,100452.88
2022-12-08T19:27:15.383Z,100452.16
2022-12-08T19:29:43.480Z,100461.09
2022-12-08T19:32:10.148Z,100464.81
2022-12-08T19:34:36.773Z,100462.34
2022-12-08T19:37:03.525Z,100472.16
2022-12-08T19:39:30.370Z,100464.38
2022-12-08T19:41:57.114Z,100474.28
2022-12-08T19:44:26.139Z,100466.50
2022-12-08T19:46:54.400Z,100468.53
2022-12-08T19:49:21.186Z,100468.75
2022-12-08T19:51:47.828Z,100469.78
2022-12-08T19:54:14.562Z,100474.38
2022-12-08T19:56:41.183Z,100478.00
2022-12-08T19:59:07.972Z,100480.81
2022-12-08T20:01:34.721Z,100488.09
2022-12-08T20:04:02.924Z,100485.72
2022-12-08T20:06:29.586Z,100485.09
2022-12-08T20:08:56.273Z,100484.31
2022-12-08T20:11:23.038Z,100484.53
2022-12-08T20:13:49.725Z,100475.78
2022-12-08T20:16:16.740Z,100475.97
2022-12-08T20:18:43.794Z,100476.06
2022-12-08T20:21:12.340Z,100477.13
2022-12-08T20:23:39.048Z,100479.16
2022-12-08T20:26:06.498Z,100476.72
2022-12-08T20:28:34.487Z,100485.63
2022-12-08T20:31:01.490Z,100478.69
2022-12-08T20:33:28.320Z,100478.03
2022-12-08T20:35:59.214Z,100479.09
2022-12-08T20:38:27.777Z,100485.47
2022-12-08T20:40:54.485Z,100491.84
2022-12-08T20:43:21.602Z,100493.75
2022-12-08T20:45:48.315Z,100492.16
2022-12-08T20:48:14.977Z,100481.72
2022-12-08T20:50:42.046Z,100487.31
2022-12-08T20:53:09.240Z,100494.66
2022-12-08T20:55:40.605Z,100509.84
2022-12-08T20:58:07.302Z,100505.47
2022-12-08T21:00:34.146Z,100513.56
2022-12-08T21:03:01.263Z,100520.69
2022-12-08T21:05:28.399Z,100520.03
2022-12-08T21:07:55.286Z,100526.31
2022-12-08T21:10:22.192Z,100530.84
2022-12-08T21:12:50.367Z,100529.25
2022-12-08T21:15:17.325Z,100525.09
2022-12-08T21:17:44.187Z,100517.97
2022-12-08T21:20:11.952Z,100527.75
2022-12-08T21:22:38.856Z,100534.00
2022-12-08T21:25:06.488Z,100539.41
2022-12-08T21:27:33.707Z,100533.22
2022-12-08T21:30:02.071Z,100539.53
2022-12-08T21:32:30.602Z,100537.81
2022-12-08T21:34:57.676Z,100532.56
2022-12-08T21:37:24.915Z,100538.75
2022-12-08T21:39:51.863Z,100537.03
2022-12-08T21:42:21.473Z,100541.50
2022-12-08T21:44:49.587Z,100545.88
2022-12-08T21:47:17.787Z,100537.03
2022-12-08T21:49:44.560Z,100539.69
2022-12-08T21:52:11.616Z,100544.94
2022-12-08T21:54:38.441Z,100542.34
2022-12-08T21:57:05.251Z,100542.47
2022-12-08T21:59:32.188Z,100532.78
2022-12-08T22:01:58.999Z,100534.56
2022-12-08T22:04:27.679Z,100545.31
2022-12-08T22:06:54.485Z,100539.25
2022-12-08T22:09:21.574Z,100534.00
2022-12-08T22:11:48.611Z,100540.25
2022-12-08T22:14:15.573Z,100537.81
2022-12-08T22:16:42.830Z,100537.06
2022-12-08T22:19:10.182Z,100532.69
2022-12-08T22:21:38.491Z,100543.41
2022-12-08T22:24:06.173Z,100539.03
2022-12-08T22:26:33.533Z,100542.75
2022-12-08T22:29:00.616Z,100532.19
2022-12-08T22:31:28.415Z,100536.00
2022-12-08T22:33:55.295Z,100546.81
2022-12-08T22:36:23.867Z,100544.44
2022-12-08T22:38:53.404Z,100541.97
2022-12-08T22:41:21.179Z,100552.69
2022-12-08T22:43:48.660Z,100543.97
2022-12-08T22:46:17.301Z,100543.19
2022-12-08T22:48:44.504Z,100546.78
2022-12-08T22:51:11.396Z,100547.72
2022-12-08T22:53:38.322Z,100548.72
2022-12-08T22:56:08.184Z,100553.16
2022-12-08T22:58:34.908Z,100547.94
2022-12-08T23:01:01.740Z,100552.56
2022-12-08T23:03:28.776Z,100551.06
2022-12-08T23:05:55.613Z,100547.81
2022-12-08T23:08:22.487Z,100553.31
2022-12-08T23:10:51.443Z,100554.44
2022-12-08T23:13:20.788Z,100551.88
2022-12-08T23:15:47.773Z,100550.16
2022-12-08T23:18:17.476Z,100550.25
2022-12-08T23:20:44.380Z,100552.13
2022-12-08T23:23:11.161Z,100553.06
2022-12-08T23:25:40.430Z,100551.47
2022-12-08T23:28:07.862Z,100549.94
2022-12-08T23:30:36.511Z,100552.78
2022-12-08T23:33:03.664Z,100553.72
2022-12-08T23:35:30.423Z,100556.47
2022-12-08T23:37:57.156Z,100554.00
2022-12-08T23:40:24.188Z,100547.03
2022-12-08T23:42:50.854Z,100541.06
2022-12-08T23:45:17.750Z,100530.53
2022-12-08T23:47:46.047Z,100541.16
2022-12-08T23:50:13.149Z,100538.66
2022-12-08T23:52:40.223Z,100534.41
2022-12-08T23:55:08.350Z,100535.41
2022-12-08T23:57:35.667Z,100545.28
